createdAt,value
2022-11-23T00:01:34.018Z,3.89
2022-11-23T00:04:11.967Z,3.92
2022-11-23T00:06:39.971Z,3.95
2022-11-23T00:09:08.272Z,3.97
2022-11-23T00:11:36.274Z,4.00
2022-11-23T00:14:04.324Z,4.03
2022-11-23T00:16:32.365Z,4.05
2022-11-23T00:19:01.296Z,4.04
2022-11-23T00:21:31.861Z,4.04
2022-11-23T00:23:59.562Z,4.04
2022-11-23T00:26:27.794Z,4.03
2022-11-23T00:28:55.354Z,4.04
2022-11-23T00:31:25.257Z,4.05
2022-11-23T00:33:55.217Z,4.03
2022-11-23T00:36:25.200Z,4.01
2022-11-23T00:38:55.112Z,3.97
2022-11-23T00:41:25.836Z,3.97
2022-11-23T00:43:53.718Z,3.94
2022-11-23T00:46:25.492Z,3.90
2022-11-23T00:48:56.175Z,3.89
2022-11-23T00:51:28.094Z,3.88
2022-11-23T00:53:55.768Z,3.86
2022-11-23T00:56:25.130Z,3.87
2022-11-23T00:58:54.632Z,3.88
2022-11-23T01:01:26.547Z,3.89
2022-11-23T01:03:57.796Z,3.91
2022-11-23T01:06:31.807Z,3.90
2022-11-23T01:09:07.899Z,3.90
2022-11-23T01:11:35.903Z,3.91
2022-11-23T01:14:04.309Z,3.94
2022-11-23T01:16:37.251Z,3.98
2022-11-23T01:19:08.749Z,4.01
2022-11-23T01:21:36.892Z,3.99
2022-11-23T01:24:17.662Z,4.01
2022-11-23T01:26:48.729Z,4.02
2022-11-23T01:29:17.760Z,4.07
2022-11-23T01:31:46.941Z,4.12
2022-11-23T01:34:15.862Z,4.14
2022-11-23T01:36:45.257Z,4.19
2022-11-23T01:39:14.716Z,4.26
2022-11-23T01:41:44.970Z,4.34
2022-11-23T01:44:29.694Z,4.41
2022-11-23T01:47:01.072Z,4.51
2022-11-23T01:49:36.535Z,4.66
2022-11-23T01:52:13.048Z,4.80
2022-11-23T01:54:51.392Z,4.93
2022-11-23T01:57:26.151Z,5.04
2022-11-23T01:59:55.331Z,5.14
2022-11-23T02:02:22.869Z,5.21
2022-11-23T02:04:51.709Z,5.25
2022-11-23T02:07:20.541Z,5.26
2022-11-23T02:09:48.988Z,5.25
2022-11-23T02:12:16.766Z,5.25
2022-11-23T02:14:45.553Z,5.23
2022-11-23T02:17:13.635Z,5.20
2022-11-23T02:20:09.853Z,5.20
2022-11-23T02:23:23.905Z,5.21
2022-11-23T02:26:15.605Z,5.18
2022-11-23T02:28:54.422Z,5.16
2022-11-23T02:31:23.176Z,5.11
2022-11-23T02:33:52.634Z,5.03
2022-11-23T02:36:50.028Z,5.00
2022-11-23T02:39:22.633Z,4.97
2022-11-23T02:41:53.005Z,4.92
2022-11-23T02:44:31.817Z,4.87
2022-11-23T02:46:59.851Z,4.85
2022-11-23T02:49:27.977Z,4.83
2022-11-23T02:51:55.633Z,4.82
2022-11-23T02:54:25.204Z,4.82
2022-11-23T02:56:52.838Z,4.82
2022-11-23T02:59:20.732Z,4.82
2022-11-23T03:01:50.311Z,4.85
2022-11-23T03:04:19.823Z,4.86
2022-11-23T03:06:47.002Z,4.88
2022-11-23T03:09:14.551Z,4.90
2022-11-23T03:11:42.568Z,4.92
2022-11-23T03:14:10.960Z,4.93
2022-11-23T03:16:40.251Z,4.95
2022-11-23T03:19:08.357Z,4.99
2022-11-23T03:21:36.814Z,5.00
2022-11-23T03:24:06.783Z,5.02
2022-11-23T03:26:35.226Z,5.03
2022-11-23T03:29:05.139Z,5.04
2022-11-23T03:31:32.916Z,5.07
2022-11-23T03:34:01.315Z,5.08
2022-11-23T03:36:30.482Z,5.10
2022-11-23T03:38:58.668Z,5.12
2022-11-23T03:41:30.809Z,5.14
2022-11-23T03:44:00.133Z,5.15
2022-11-23T03:46:27.958Z,5.15
2022-11-23T03:48:55.658Z,5.16
2022-11-23T03:51:22.985Z,5.16
2022-11-23T03:53:50.632Z,5.18
2022-11-23T03:56:19.734Z,5.23
2022-11-23T03:58:47.269Z,5.26
2022-11-23T04:01:15.092Z,5.33
2022-11-23T04:03:44.452Z,5.40
2022-11-23T04:06:14.013Z,5.45
2022-11-23T04:08:50.417Z,5.53
2022-11-23T04:11:19.986Z,5.62
2022-11-23T04:13:49.023Z,5.72
2022-11-23T04:16:16.841Z,5.77
2022-11-23T04:18:44.416Z,5.82
2022-11-23T04:21:12.297Z,5.88
2022-11-23T04:23:40.159Z,5.87
2022-11-23T04:26:09.118Z,5.88
2022-11-23T04:28:38.512Z,5.81
2022-11-23T04:31:06.618Z,5.79
2022-11-23T04:33:36.167Z,5.77
2022-11-23T04:36:05.435Z,5.71
2022-11-23T04:38:33.114Z,5.66
2022-11-23T04:41:00.973Z,5.61
2022-11-23T04:43:28.666Z,5.54
2022-11-23T04:45:57.333Z,5.49
2022-11-23T04:48:26.790Z,5.44
2022-11-23T04:50:55.899Z,5.41
2022-11-23T04:53:28.113Z,5.40
2022-11-23T04:55:56.358Z,5.36
2022-11-23T04:58:24.192Z,5.35
2022-11-23T05:00:54.214Z,5.34
2022-11-23T05:03:21.900Z,5.30
2022-11-23T05:05:49.882Z,5.27
2022-11-23T05:08:17.606Z,5.25
2022-11-23T05:10:47.486Z,5.23
2022-11-23T05:13:15.333Z,5.19
2022-11-23T05:15:43.580Z,5.20
2022-11-23T05:18:13.464Z,5.19
2022-11-23T05:20:41.524Z,5.18
2022-11-23T05:23:11.001Z,5.16
2022-11-23T05:25:40.651Z,5.16
2022-11-23T05:28:39.093Z,5.14
2022-11-23T05:30:49.027Z,5.15
2022-11-23T05:33:16.943Z,5.16
2022-11-23T05:35:44.743Z,5.15
2022-11-23T05:38:12.519Z,5.13
2022-11-23T05:40:40.250Z,5.12
2022-11-23T05:43:09.090Z,5.13
2022-11-23T05:45:36.598Z,5.11
2022-11-23T05:48:04.803Z,5.12
2022-11-23T05:50:34.555Z,5.12
2022-11-23T05:53:19.333Z,5.13
2022-11-23T05:55:49.004Z,5.13
2022-11-23T05:58:18.793Z,5.12
2022-11-23T06:00:46.395Z,5.13
2022-11-23T06:03:15.231Z,5.19
2022-11-23T06:05:43.177Z,5.25
2022-11-23T06:08:10.731Z,5.32
2022-11-23T06:10:39.710Z,5.42
2022-11-23T06:13:07.370Z,5.52
2022-11-23T06:15:35.865Z,5.66
2022-11-23T06:18:04.056Z,5.76
2022-11-23T06:20:36.319Z,5.88
2022-11-23T06:23:04.144Z,5.93
2022-11-23T06:25:31.724Z,5.91
2022-11-23T06:28:01.401Z,5.91
2022-11-23T06:30:31.190Z,5.95
2022-11-23T06:33:04.198Z,5.98
2022-11-23T06:35:33.779Z,5.97
2022-11-23T06:38:01.497Z,5.98
2022-11-23T06:40:29.509Z,5.95
2022-11-23T06:43:00.388Z,5.95
2022-11-23T06:45:39.170Z,5.92
2022-11-23T06:48:08.503Z,5.90
2022-11-23T06:50:37.913Z,5.87
2022-11-23T06:53:05.604Z,5.84
2022-11-23T06:55:35.193Z,5.79
2022-11-23T06:58:04.028Z,5.77
2022-11-23T07:00:32.980Z,5.75
2022-11-23T07:03:01.765Z,5.72
2022-11-23T07:05:31.436Z,5.70
2022-11-23T07:07:59.185Z,5.67
2022-11-23T07:10:27.307Z,5.66
2022-11-23T07:13:06.551Z,5.68
2022-11-23T07:15:36.560Z,5.67
2022-11-23T07:18:05.648Z,5.67
2022-11-23T07:20:34.122Z,5.68
2022-11-23T07:23:06.576Z,5.67
2022-11-23T07:25:37.804Z,5.68
2022-11-23T07:28:07.552Z,5.74
2022-11-23T07:30:36.163Z,5.80
2022-11-23T07:33:08.029Z,5.89
2022-11-23T07:35:41.360Z,5.99
2022-11-23T07:38:09.125Z,6.07
2022-11-23T07:40:38.559Z,6.12
2022-11-23T07:43:07.653Z,6.22
2022-11-23T07:45:36.837Z,6.30
2022-11-23T07:48:08.908Z,6.37
2022-11-23T07:50:39.712Z,6.45
2022-11-23T07:53:08.085Z,6.51
2022-11-23T07:55:35.368Z,6.57
2022-11-23T07:58:02.967Z,6.63
2022-11-23T08:00:31.112Z,6.67
2022-11-23T08:03:26.303Z,6.71
2022-11-23T08:05:28.734Z,6.74
2022-11-23T08:08:01.359Z,6.75
2022-11-23T08:10:31.191Z,6.75
2022-11-23T08:13:00.449Z,6.74
2022-11-23T08:15:28.242Z,6.73
2022-11-23T08:17:59.097Z,6.71
2022-11-23T08:20:29.491Z,6.72
2022-11-23T08:22:57.514Z,6.70
2022-11-23T08:25:27.327Z,6.70
2022-11-23T08:27:58.461Z,6.69
2022-11-23T08:30:27.660Z,6.69
2022-11-23T08:32:55.843Z,6.68
2022-11-23T08:35:24.286Z,6.65
2022-11-23T08:37:52.203Z,6.64
2022-11-23T08:40:25.116Z,6.64
2022-11-23T08:42:49.673Z,6.69
2022-11-23T08:45:19.125Z,6.72
2022-11-23T08:47:46.527Z,6.73
2022-11-23T08:50:14.570Z,6.72
2022-11-23T08:52:42.505Z,6.70
2022-11-23T08:55:10.309Z,6.69
2022-11-23T08:57:38.422Z,6.73
2022-11-23T09:00:08.272Z,6.77
2022-11-23T09:02:35.993Z,6.84
2022-11-23T09:05:06.141Z,6.90
2022-11-23T09:07:34.007Z,6.98
2022-11-23T09:10:01.817Z,7.06
2022-11-23T09:12:29.543Z,7.10
2022-11-23T09:14:57.097Z,7.17
2022-11-23T09:17:24.487Z,7.21
2022-11-23T09:19:52.071Z,7.23
2022-11-23T09:22:19.781Z,7.24
2022-11-23T09:24:47.573Z,7.19
2022-11-23T09:27:15.222Z,7.19
2022-11-23T09:29:43.180Z,7.19
2022-11-23T09:32:11.072Z,7.19
2022-11-23T09:34:38.529Z,7.13
2022-11-23T09:37:06.071Z,7.12
2022-11-23T09:39:34.030Z,7.09
2022-11-23T09:42:09.500Z,7.07
2022-11-23T09:45:10.374Z,7.05
2022-11-23T09:48:00.408Z,7.02
2022-11-23T09:50:36.166Z,7.01
2022-11-23T09:53:09.279Z,6.98
2022-11-23T09:55:47.230Z,7.00
2022-11-23T09:58:24.857Z,7.02
2022-11-23T10:01:07.124Z,7.03
2022-11-23T10:03:43.934Z,7.07
2022-11-23T10:06:28.023Z,7.13
2022-11-23T10:09:18.702Z,7.21
2022-11-23T10:12:18.870Z,7.31
2022-11-23T10:15:13.614Z,7.44
2022-11-23T10:18:10.468Z,7.58
2022-11-23T10:21:03.222Z,7.72
2022-11-23T10:23:56.860Z,7.81
2022-11-23T10:26:36.045Z,7.89
2022-11-23T10:29:14.111Z,7.95
2022-11-23T10:31:46.633Z,7.98
2022-11-23T10:34:19.693Z,7.99
2022-11-23T10:36:47.507Z,8.00
2022-11-23T10:39:25.898Z,7.99
2022-11-23T10:42:01.668Z,7.93
2022-11-23T10:44:37.930Z,7.92
2022-11-23T10:47:05.862Z,7.88
2022-11-23T10:49:35.503Z,7.84
2022-11-23T10:52:08.232Z,7.83
2022-11-23T10:54:46.770Z,7.82
2022-11-23T10:57:30.708Z,7.79
2022-11-23T11:00:12.761Z,7.78
2022-11-23T11:02:43.771Z,7.79
2022-11-23T11:06:09.382Z,7.80
2022-11-23T11:08:18.587Z,7.83
2022-11-23T11:10:59.206Z,7.85
2022-11-23T11:13:34.902Z,7.87
2022-11-23T11:16:06.736Z,7.88
2022-11-23T11:18:37.814Z,7.90
2022-11-23T11:21:22.820Z,7.92
2022-11-23T11:24:04.307Z,7.95
2022-11-23T11:26:35.419Z,7.96
2022-11-23T11:29:06.299Z,7.99
2022-11-23T11:31:54.550Z,8.06
2022-11-23T11:34:30.462Z,8.12
2022-11-23T11:37:12.028Z,8.21
2022-11-23T11:39:55.840Z,8.28
2022-11-23T11:42:56.813Z,8.35
2022-11-23T11:45:35.295Z,8.43
2022-11-23T11:48:38.961Z,8.51
2022-11-23T11:51:23.460Z,8.57
2022-11-23T11:53:59.301Z,8.58
2022-11-23T11:56:52.784Z,8.59
2022-11-23T11:59:43.003Z,8.60
2022-11-23T12:02:39.048Z,8.54
2022-11-23T12:05:17.919Z,8.49
2022-11-23T12:08:13.659Z,8.39
2022-11-23T12:10:58.733Z,8.33
2022-11-23T12:13:31.723Z,8.26
2022-11-23T12:16:45.900Z,8.17
2022-11-23T12:19:26.352Z,8.08
2022-11-23T12:22:23.181Z,7.99
2022-11-23T12:25:13.784Z,7.92
2022-11-23T12:28:19.110Z,7.89
2022-11-23T12:31:16.016Z,7.83
2022-11-23T12:34:04.266Z,7.78
2022-11-23T12:36:46.512Z,7.74
2022-11-23T12:39:54.910Z,7.71
2022-11-23T12:42:54.453Z,7.68
2022-11-23T12:45:42.442Z,7.67
2022-11-23T12:48:41.290Z,7.65
2022-11-23T12:51:23.053Z,7.65
2022-11-23T12:54:34.530Z,7.69
2022-11-23T12:57:29.735Z,7.73
2022-11-23T13:00:08.594Z,7.77
2022-11-23T13:03:00.046Z,7.89
2022-11-23T13:05:54.606Z,8.04
2022-11-23T13:08:39.489Z,8.21
2022-11-23T13:11:34.058Z,8.39
2022-11-23T13:14:24.111Z,8.53
2022-11-23T13:17:16.127Z,8.65
2022-11-23T13:19:58.352Z,8.68
2022-11-23T13:22:27.366Z,8.70
2022-11-23T13:25:09.922Z,8.72
2022-11-23T13:27:51.721Z,8.72
2022-11-23T13:31:07.184Z,8.71
2022-11-23T13:33:27.157Z,8.67
2022-11-23T13:36:01.046Z,8.63
2022-11-23T13:38:36.945Z,8.57
2022-11-23T13:41:36.014Z,8.54
2022-11-23T13:44:27.728Z,8.51
2022-11-23T13:47:15.894Z,8.51
2022-11-23T13:49:49.565Z,8.52
2022-11-23T13:52:23.250Z,8.52
2022-11-23T13:55:11.501Z,8.54
2022-11-23T13:57:42.242Z,8.55
2022-11-23T14:00:50.063Z,8.58
2022-11-23T14:03:52.537Z,8.60
2022-11-23T14:06:50.758Z,8.58
2022-11-23T14:09:49.647Z,8.51
2022-11-23T14:12:23.368Z,8.43
2022-11-23T14:15:17.680Z,8.42
2022-11-23T14:18:22.808Z,8.46
2022-11-23T14:21:11.389Z,8.52
2022-11-23T14:24:02.734Z,8.61
2022-11-23T14:26:50.763Z,8.68
2022-11-23T14:30:08.588Z,8.76
2022-11-23T14:33:03.519Z,8.82
2022-11-23T14:35:42.043Z,8.86
2022-11-23T14:38:32.007Z,8.86
2022-11-23T14:41:10.348Z,8.80
2022-11-23T14:43:41.796Z,8.74
2022-11-23T14:46:18.496Z,8.68
2022-11-23T14:48:48.445Z,8.60
2022-11-23T14:51:23.164Z,8.55
2022-11-23T14:53:55.021Z,8.50
2022-11-23T14:56:47.101Z,8.43
2022-11-23T14:59:29.086Z,8.38
2022-11-23T15:02:00.886Z,8.33
2022-11-23T15:04:34.101Z,8.26
2022-11-23T15:07:07.461Z,8.21
2022-11-23T15:10:18.901Z,8.16
2022-11-23T15:12:48.982Z,8.08
2022-11-23T15:15:23.620Z,7.97
2022-11-23T15:17:55.897Z,7.89
2022-11-23T15:20:28.928Z,7.83
2022-11-23T15:22:56.511Z,7.75
2022-11-23T15:25:24.248Z,7.70
2022-11-23T15:27:52.421Z,7.63
2022-11-23T15:30:28.326Z,7.59
2022-11-23T15:33:04.125Z,7.53
2022-11-23T15:35:35.173Z,7.47
2022-11-23T15:38:10.179Z,7.42
2022-11-23T15:40:42.385Z,7.39
2022-11-23T15:43:18.689Z,7.37
2022-11-23T15:45:51.620Z,7.39
2022-11-23T15:48:32.899Z,7.42
2022-11-23T15:51:08.105Z,7.46
2022-11-23T15:53:51.343Z,7.52
2022-11-23T15:56:30.575Z,7.57
2022-11-23T15:59:03.105Z,7.64
2022-11-23T16:01:31.495Z,7.68
2022-11-23T16:04:06.330Z,7.72
2022-11-23T16:06:40.603Z,7.73
2022-11-23T16:09:55.482Z,7.70
2022-11-23T16:12:31.163Z,7.66
2022-11-23T16:15:31.872Z,7.59
2022-11-23T16:18:01.281Z,7.52
2022-11-23T16:20:30.131Z,7.43
2022-11-23T16:23:01.342Z,7.36
2022-11-23T16:25:33.032Z,7.30
2022-11-23T16:28:14.260Z,7.24
2022-11-23T16:30:46.893Z,7.14
2022-11-23T16:33:17.590Z,7.06
2022-11-23T16:35:45.698Z,7.00
2022-11-23T16:38:13.453Z,6.94
2022-11-23T16:40:43.388Z,6.88
2022-11-23T16:43:12.356Z,6.83
2022-11-23T16:45:46.836Z,6.76
2022-11-23T16:48:38.581Z,6.69
2022-11-23T16:51:07.546Z,6.63
2022-11-23T16:54:00.360Z,6.56
2022-11-23T16:56:08.134Z,6.51
2022-11-23T16:58:36.031Z,6.45
2022-11-23T17:01:04.280Z,6.39
2022-11-23T17:03:33.483Z,6.35
2022-11-23T17:06:01.231Z,6.32
2022-11-23T17:08:28.783Z,6.32
2022-11-23T17:10:56.475Z,6.31
2022-11-23T17:13:28.456Z,6.28
2022-11-23T17:15:56.355Z,6.28
2022-11-23T17:18:24.010Z,6.24
2022-11-23T17:20:51.540Z,6.22
2022-11-23T17:23:19.157Z,6.23
2022-11-23T17:25:46.890Z,6.26
2022-11-23T17:28:22.234Z,6.29
2022-11-23T17:30:50.275Z,6.32
2022-11-23T17:33:17.903Z,6.35
2022-11-23T17:35:45.736Z,6.39
2022-11-23T17:38:16.995Z,6.43
2022-11-23T17:40:45.263Z,6.47
2022-11-23T17:43:14.854Z,6.50
2022-11-23T17:45:44.363Z,6.55
2022-11-23T17:48:14.878Z,6.60
2022-11-23T17:50:42.540Z,6.61
2022-11-23T17:53:10.940Z,6.61
2022-11-23T17:55:38.531Z,6.61
2022-11-23T17:58:06.737Z,6.60
2022-11-23T18:00:35.087Z,6.56
2022-11-23T18:03:02.843Z,6.52
2022-11-23T18:05:31.101Z,6.45
2022-11-23T18:07:58.838Z,6.39
2022-11-23T18:10:26.639Z,6.33
2022-11-23T18:12:54.306Z,6.29
2022-11-23T18:15:21.594Z,6.23
2022-11-23T18:17:49.174Z,6.17
2022-11-23T18:20:17.257Z,6.09
2022-11-23T18:22:45.177Z,6.04
2022-11-23T18:25:12.612Z,5.95
2022-11-23T18:27:40.237Z,5.90
2022-11-23T18:30:09.055Z,5.86
2022-11-23T18:32:37.124Z,5.81
2022-11-23T18:35:06.526Z,5.78
2022-11-23T18:37:33.982Z,5.74
2022-11-23T18:40:02.155Z,5.70
2022-11-23T18:42:30.064Z,5.66
2022-11-23T18:44:57.648Z,5.62
2022-11-23T18:47:25.306Z,5.59
2022-11-23T18:49:52.956Z,5.56
2022-11-23T18:52:20.721Z,5.52
2022-11-23T18:54:48.574Z,5.51
2022-11-23T18:57:16.529Z,5.52
2022-11-23T18:59:59.718Z,5.53
2022-11-23T19:02:13.967Z,5.56
2022-11-23T19:04:41.801Z,5.62
2022-11-23T19:07:09.305Z,5.73
2022-11-23T19:09:37.088Z,5.83
2022-11-23T19:12:06.358Z,5.93
2022-11-23T19:14:33.909Z,6.01
2022-11-23T19:17:02.223Z,6.12
2022-11-23T19:19:29.714Z,6.21
2022-11-23T19:21:57.665Z,6.28
2022-11-23T19:24:25.662Z,6.29
2022-11-23T19:26:53.313Z,6.28
2022-11-23T19:29:24.794Z,6.24
2022-11-23T19:31:52.410Z,6.20
2022-11-23T19:34:21.941Z,6.18
2022-11-23T19:36:49.495Z,6.20
2022-11-23T19:39:17.050Z,6.18
2022-11-23T19:41:44.820Z,6.16
2022-11-23T19:44:12.388Z,6.12
2022-11-23T19:46:40.562Z,6.09
2022-11-23T19:49:08.546Z,6.03
2022-11-23T19:51:35.943Z,5.97
2022-11-23T19:54:05.531Z,5.92
2022-11-23T19:56:33.027Z,5.89
2022-11-23T19:59:01.535Z,5.85
2022-11-23T20:01:32.328Z,5.80
2022-11-23T20:04:08.222Z,5.72
2022-11-23T20:06:35.654Z,5.64
2022-11-23T20:09:06.925Z,5.56
2022-11-23T20:11:35.378Z,5.49
2022-11-23T20:14:03.543Z,5.44
2022-11-23T20:16:32.740Z,5.40
2022-11-23T20:19:04.538Z,5.36
2022-11-23T20:21:33.926Z,5.36
2022-11-23T20:24:13.388Z,5.33
2022-11-23T20:26:42.243Z,5.31
2022-11-23T20:29:10.360Z,5.33
2022-11-23T20:31:38.055Z,5.35
2022-11-23T20:34:08.112Z,5.41
2022-11-23T20:36:37.663Z,5.44
2022-11-23T20:39:09.570Z,5.53
2022-11-23T20:41:37.769Z,5.59
2022-11-23T20:44:13.054Z,5.64
2022-11-23T20:49:10.847Z,5.73
2022-11-23T20:51:38.455Z,5.80
2022-11-23T20:54:06.479Z,5.84
2022-11-23T20:56:34.817Z,5.84
2022-11-23T20:59:03.761Z,5.80
2022-11-23T21:01:32.013Z,5.78
2022-11-23T21:03:59.831Z,5.77
2022-11-23T21:06:28.060Z,5.74
2022-11-23T21:08:56.140Z,5.70
2022-11-23T21:11:45.311Z,5.67
2022-11-23T21:14:19.653Z,5.63
2022-11-23T21:16:57.637Z,5.59
2022-11-23T21:19:30.188Z,5.55
2022-11-23T21:22:01.248Z,5.51
2022-11-23T21:24:29.196Z,5.45
2022-11-23T21:26:57.112Z,5.41
2022-11-23T21:29:25.640Z,5.34
2022-11-23T21:31:53.686Z,5.32
2022-11-23T21:34:25.303Z,5.31
2022-11-23T21:36:54.649Z,5.30
2022-11-23T21:39:23.562Z,5.29
2022-11-23T21:41:53.649Z,5.28
2022-11-23T21:44:22.207Z,5.27
2022-11-23T21:46:50.300Z,5.26
2022-11-23T21:49:20.093Z,5.23
2022-11-23T21:51:48.321Z,5.21
2022-11-23T21:54:16.385Z,5.23
2022-11-23T21:56:45.964Z,5.27
2022-11-23T21:59:14.406Z,5.34
2022-11-23T22:01:42.573Z,5.39
2022-11-23T22:04:12.980Z,5.49
2022-11-23T22:06:41.655Z,5.58
2022-11-23T22:09:11.035Z,5.67
2022-11-23T22:11:42.426Z,5.76
2022-11-23T22:14:18.515Z,5.88
2022-11-23T22:16:53.241Z,5.99
2022-11-23T22:19:20.737Z,6.06
2022-11-23T22:21:48.554Z,6.12
2022-11-23T22:24:19.079Z,6.18
2022-11-23T22:26:48.353Z,6.25
2022-11-23T22:29:16.303Z,6.24
2022-11-23T22:31:44.168Z,6.20
2022-11-23T22:34:13.594Z,6.19
2022-11-23T22:36:41.499Z,6.18
2022-11-23T22:39:09.525Z,6.16
2022-11-23T22:41:38.363Z,6.12
2022-11-23T22:44:09.081Z,6.12
2022-11-23T22:46:37.686Z,6.11
2022-11-23T22:49:05.806Z,6.09
2022-11-23T22:51:33.737Z,6.07
2022-11-23T22:54:02.266Z,6.03
2022-11-23T22:56:30.834Z,6.00
2022-11-23T22:58:59.129Z,6.00
2022-11-23T23:01:30.010Z,5.95
2022-11-23T23:04:00.867Z,5.92
2022-11-23T23:06:33.882Z,5.92
2022-11-23T23:09:03.671Z,5.89
2022-11-23T23:11:32.561Z,5.88
2022-11-23T23:14:00.761Z,5.87
2022-11-23T23:16:29.461Z,5.86
2022-11-23T23:18:58.677Z,5.83
2022-11-23T23:21:27.742Z,5.83
2022-11-23T23:23:58.304Z,5.86
2022-11-23T23:26:28.070Z,5.90
2022-11-23T23:28:58.416Z,5.94
2022-11-23T23:31:27.861Z,5.98
2022-11-23T23:33:56.456Z,6.02
2022-11-23T23:36:24.504Z,6.09
2022-11-23T23:38:52.168Z,6.13
2022-11-23T23:41:20.268Z,6.22
2022-11-23T23:43:48.302Z,6.29
2022-11-23T23:46:16.663Z,6.36
2022-11-23T23:48:44.879Z,6.42
2022-11-23T23:51:18.952Z,6.44
2022-11-23T23:53:47.042Z,6.48
2022-11-23T23:56:19.388Z,6.52
2022-11-23T23:58:47.024Z,6.51
